Yangon, Burma
Current Conditions -  °F | °C
As of 11:00 PM on Friday 31 Oct 2014 (Local Time) from VYYY Reporting Station
Scattered Clouds Scattered Clouds  
Wind Chill: 81°   Ceiling: Unl
Heat Index: 88°   Visibility: 4mi
Dew Point: 79°   Wind: 3mph
Humidity: 94%   Direction: 220°SW
Pressure: 29.83"   Gusts: NA
Location:  16.79°N, 96.15°E
Report Text: VYYY 311700Z 22003KT 6000 SCT020 27/26 Q1010 NOSIG
Loading
Personal Weather Stations






























Interactive Weather Map
Tropical Storm Tracking
New forecast layout! Learn more

10-Day Weather Forecast

Advertisements
Track Severe Weather on mobile